KEWN/EWN METAR and TAF weather

Enter ICAO airport designator
Station Type Date Time Source
KEWN METAR 2021/01/27 13:54 UTC NOAA

KEWN 271354Z 36008KT 3SM RA BR FEW004 BKN065 OVC095 10/09 A3005 RMK AO2 SLP175 P0004 T01000094


Station Type Date Time Source
KEWN Decoded METAR 2021/01/27 13:54 UTC NOAA

New Bern, Craven County Regional Airport, NC, United States (KEWN) 35-04-03N 077-02-50W 3M
Jan 27, 2021 - 08:54 AM EST / 2021.01.27 1354 UTC
Wind: from the N (360 degrees) at 9 MPH (8 KT):0
Visibility: 3 mile(s):0
Sky conditions: overcast
Weather: rain; mist
Precipitation last hour: 0.04 inches
Temperature: 50.0 F (10.0 C)
Dew Point: 48.9 F (9.4 C)
Relative Humidity: 96%
Pressure (altimeter): 30.05 in. Hg (1017 hPa)
ob: KEWN 271354Z 36008KT 3SM RA BR FEW004 BKN065 OVC095 10/09 A3005 RMK AO2 SLP175 P0004 T01000094
cycle: 14

Station Type Date Time Source
KEWN TAF 2021/01/27 12:54 UTC NOAA

TAF KEWN 271152Z 2712/2812 36005KT 4SM BR VCSH SCT008 BKN100
TEMPO 2712/2713 3SM -RA BKN008
FM271400 36007KT 5SM -RA BR SCT020 OVC050
FM271900 06005KT 6SM -SHRA BR OVC015
FM280200 04009KT 6SM RA BR OVC007
FM280800 35011G21KT 3SM -RASN BR OVC007

Example: see airport list